createdAt,value
2018-07-04T00:02:03.322Z,60.60
2018-07-04T00:07:17.235Z,60.80
2018-07-04T00:09:56.925Z,61.00
2018-07-04T00:12:36.736Z,61.00
2018-07-04T00:15:16.623Z,60.70
2018-07-04T00:17:56.302Z,61.10
2018-07-04T00:20:40.000Z,61.00
2018-07-04T00:23:19.667Z,60.80
2018-07-04T00:25:59.412Z,61.30
2018-07-04T00:28:39.220Z,61.30
2018-07-04T00:31:18.852Z,61.30
2018-07-04T00:33:58.605Z,61.30
2018-07-04T00:36:38.367Z,61.80
2018-07-04T00:39:18.046Z,62.10
2018-07-04T00:41:57.799Z,61.90
2018-07-04T00:44:37.529Z,62.20
2018-07-04T00:47:17.341Z,62.30
2018-07-04T00:49:57.116Z,62.90
2018-07-04T00:52:37.993Z,63.10
2018-07-04T00:55:17.808Z,62.80
2018-07-04T00:57:57.612Z,63.10
2018-07-04T01:00:37.387Z,63.20
2018-07-04T01:03:17.040Z,63.30
2018-07-04T01:05:56.847Z,63.70
2018-07-04T01:08:36.692Z,63.90
2018-07-04T01:11:16.295Z,64.60
2018-07-04T01:13:55.998Z,64.40
2018-07-04T01:16:35.764Z,64.40
2018-07-04T01:19:16.972Z,64.50
2018-07-04T01:21:57.244Z,64.40
2018-07-04T01:24:36.951Z,64.90
2018-07-04T01:27:16.630Z,64.90
2018-07-04T01:29:56.763Z,65.00
2018-07-04T01:32:36.579Z,65.40
2018-07-04T01:35:16.254Z,65.20
2018-07-04T01:37:56.024Z,65.30
2018-07-04T01:40:36.694Z,65.20
2018-07-04T01:43:16.497Z,65.40
2018-07-04T01:45:56.132Z,65.70
2018-07-04T01:48:36.014Z,65.90
2018-07-04T01:51:15.678Z,66.00
2018-07-04T01:53:55.423Z,66.00
2018-07-04T01:56:35.067Z,66.10
2018-07-04T01:59:14.699Z,66.30
2018-07-04T02:01:54.433Z,65.70
2018-07-04T02:04:34.264Z,65.50
2018-07-04T02:07:14.030Z,65.60
2018-07-04T02:09:54.593Z,66.40
2018-07-04T02:12:34.278Z,66.30
2018-07-04T02:15:13.988Z,66.20
2018-07-04T02:17:53.643Z,67.10
2018-07-04T02:20:33.408Z,66.40
2018-07-04T02:23:13.083Z,66.60
2018-07-04T02:25:52.781Z,66.70
2018-07-04T02:28:32.384Z,67.50
2018-07-04T02:31:12.204Z,66.80
2018-07-04T02:36:25.664Z,66.90
2018-07-04T02:39:05.885Z,66.80
2018-07-04T02:41:45.768Z,66.90
2018-07-04T02:44:25.575Z,67.20
2018-07-04T02:47:05.417Z,67.00
2018-07-04T02:49:45.099Z,67.10
2018-07-04T02:52:25.483Z,66.90
2018-07-04T02:55:05.266Z,66.50
2018-07-04T02:57:44.959Z,66.70
2018-07-04T03:00:24.652Z,66.40
2018-07-04T03:03:04.304Z,66.60
2018-07-04T03:05:44.279Z,66.20
2018-07-04T03:08:24.008Z,65.80
2018-07-04T03:11:03.710Z,65.60
2018-07-04T03:13:43.359Z,65.70
2018-07-04T03:16:23.091Z,65.90
2018-07-04T03:19:02.747Z,65.80
2018-07-04T03:21:42.503Z,66.40
2018-07-04T03:24:22.152Z,66.40
2018-07-04T03:27:01.824Z,66.40
2018-07-04T03:29:41.495Z,66.20
2018-07-04T03:32:21.336Z,66.20
2018-07-04T03:35:01.179Z,66.40
2018-07-04T03:37:40.969Z,65.90
2018-07-04T03:40:20.531Z,65.90
2018-07-04T03:43:00.280Z,66.90
2018-07-04T03:45:40.438Z,66.60
2018-07-04T03:48:20.279Z,66.90
2018-07-04T03:51:00.089Z,66.80
2018-07-04T03:53:39.897Z,66.90
2018-07-04T03:56:19.679Z,66.40
2018-07-04T03:58:59.581Z,66.30
2018-07-04T04:01:39.217Z,66.30
2018-07-04T04:04:18.940Z,66.70
2018-07-04T04:06:58.641Z,66.40
2018-07-04T04:09:38.321Z,66.40
2018-07-04T04:12:18.243Z,66.40
2018-07-04T04:14:57.927Z,66.40
2018-07-04T04:17:37.623Z,66.80
2018-07-04T04:20:17.284Z,67.20
2018-07-04T04:22:57.093Z,66.70
2018-07-04T04:25:36.715Z,65.90
2018-07-04T04:28:16.360Z,66.30
2018-07-04T04:30:56.015Z,66.40
2018-07-04T04:33:35.736Z,66.80
2018-07-04T04:36:15.422Z,67.10
2018-07-04T04:38:55.087Z,66.60
2018-07-04T04:41:35.639Z,66.70
2018-07-04T04:44:15.505Z,66.80
2018-07-04T04:46:55.146Z,67.10
2018-07-04T04:49:35.751Z,67.10
2018-07-04T04:52:15.569Z,67.50
2018-07-04T04:57:29.191Z,68.10
2018-07-04T05:00:09.058Z,68.20
2018-07-04T05:02:48.735Z,67.70
2018-07-04T05:05:28.388Z,67.70
2018-07-04T05:08:08.077Z,68.10
2018-07-04T05:10:47.742Z,68.70
2018-07-04T05:13:27.455Z,68.70
2018-07-04T05:16:07.103Z,68.70
2018-07-04T05:18:47.097Z,68.40
2018-07-04T05:21:26.931Z,68.50
2018-07-04T05:24:08.249Z,68.30
2018-07-04T05:26:47.987Z,68.30
2018-07-04T05:29:27.805Z,68.20
2018-07-04T05:32:07.684Z,68.70
2018-07-04T05:34:48.224Z,69.10
2018-07-04T05:37:27.923Z,69.30
2018-07-04T05:40:07.721Z,69.00
2018-07-04T05:42:48.929Z,69.00
2018-07-04T05:45:29.131Z,68.50
2018-07-04T05:48:08.817Z,68.70
2018-07-04T05:50:48.607Z,68.70
2018-07-04T05:53:28.419Z,69.30
2018-07-04T05:56:08.115Z,68.80
2018-07-04T05:58:47.962Z,68.70
2018-07-04T06:01:27.872Z,68.80
2018-07-04T06:04:07.560Z,69.00
2018-07-04T06:06:47.403Z,69.10
2018-07-04T06:09:27.241Z,69.40
2018-07-04T06:12:06.928Z,68.90
2018-07-04T06:14:47.109Z,68.70
2018-07-04T06:17:26.823Z,70.10
2018-07-04T06:20:06.891Z,68.70
2018-07-04T06:22:46.524Z,68.40
2018-07-04T06:25:26.289Z,68.60
2018-07-04T06:28:06.075Z,68.10
2018-07-04T06:30:45.785Z,68.10
2018-07-04T06:33:25.840Z,68.30
2018-07-04T06:36:05.812Z,68.90
2018-07-04T06:38:33.366Z,68.60
2018-07-04T06:41:00.777Z,67.80
2018-07-04T06:43:28.192Z,67.70
2018-07-04T06:45:55.595Z,67.80
2018-07-04T06:50:50.698Z,67.70
2018-07-04T06:53:18.108Z,67.80
2018-07-04T06:55:45.508Z,67.60
2018-07-04T06:58:12.908Z,67.60
2018-07-04T07:00:40.335Z,66.40
2018-07-04T07:03:20.117Z,65.80
2018-07-04T07:05:59.813Z,65.80
2018-07-04T07:08:41.570Z,66.00
2018-07-04T07:11:21.400Z,65.80
2018-07-04T07:14:01.215Z,66.00
2018-07-04T07:16:40.854Z,65.30
2018-07-04T07:21:56.148Z,65.50
2018-07-04T07:24:35.811Z,65.30
2018-07-04T07:27:15.685Z,65.40
2018-07-04T07:29:55.357Z,65.40
2018-07-04T07:32:34.999Z,65.40
2018-07-04T07:35:14.928Z,65.30
2018-07-04T07:37:54.787Z,65.60
2018-07-04T07:40:34.788Z,64.30
2018-07-04T07:43:14.448Z,64.00
2018-07-04T07:45:54.131Z,64.00
2018-07-04T07:51:08.636Z,63.10
2018-07-04T07:56:22.350Z,61.40
2018-07-04T07:59:02.158Z,60.40
2018-07-04T08:01:42.059Z,59.60
2018-07-04T08:04:21.876Z,60.30
2018-07-04T08:07:01.563Z,59.60
2018-07-04T08:09:41.444Z,59.50
2018-07-04T08:12:21.108Z,59.80
2018-07-04T08:15:00.720Z,59.30
2018-07-04T08:17:41.180Z,59.30
2018-07-04T08:20:20.852Z,59.30
2018-07-04T08:23:00.502Z,58.50
2018-07-04T08:25:40.223Z,57.60
2018-07-04T08:28:19.780Z,58.40
2018-07-04T08:30:59.483Z,58.10
2018-07-04T08:33:40.038Z,57.30
2018-07-04T08:36:19.849Z,57.80
2018-07-04T08:38:59.688Z,57.10
2018-07-04T08:41:39.423Z,57.20
2018-07-04T08:44:19.312Z,56.20
2018-07-04T08:46:58.967Z,56.20
2018-07-04T08:49:39.727Z,55.50
2018-07-04T08:52:19.651Z,56.10
2018-07-04T08:54:59.524Z,55.90
2018-07-04T09:00:13.218Z,55.00
2018-07-04T09:02:53.021Z,54.40
2018-07-04T09:05:33.076Z,54.10
2018-07-04T09:08:12.718Z,54.30
2018-07-04T09:10:52.553Z,54.30
2018-07-04T09:13:32.376Z,54.60
2018-07-04T09:16:12.227Z,53.90
2018-07-04T09:18:51.912Z,53.50
2018-07-04T09:21:31.987Z,53.60
2018-07-04T09:24:11.662Z,53.30
2018-07-04T09:26:51.565Z,53.20
2018-07-04T09:29:31.204Z,53.50
2018-07-04T09:32:10.983Z,53.50
2018-07-04T09:34:50.642Z,53.70
2018-07-04T09:37:30.270Z,53.30
2018-07-04T09:40:10.191Z,53.10
2018-07-04T09:42:49.962Z,53.00
2018-07-04T09:45:29.577Z,51.30
2018-07-04T09:48:09.335Z,51.80
2018-07-04T09:50:49.198Z,52.40
2018-07-04T09:53:29.062Z,53.20
2018-07-04T09:56:08.741Z,53.00
2018-07-04T10:01:26.398Z,52.50
2018-07-04T10:04:06.144Z,51.80
2018-07-04T10:09:19.572Z,51.50
2018-07-04T10:11:59.278Z,51.20
2018-07-04T10:14:39.198Z,50.40
2018-07-04T10:17:19.155Z,50.30
2018-07-04T10:19:59.395Z,50.90
2018-07-04T10:22:39.199Z,50.50
2018-07-04T10:25:18.991Z,49.70
2018-07-04T10:27:58.632Z,49.10
2018-07-04T10:30:38.900Z,49.60
2018-07-04T10:33:19.562Z,48.40
2018-07-04T10:35:59.601Z,47.90
2018-07-04T10:38:39.367Z,48.60
2018-07-04T10:41:19.691Z,48.60
2018-07-04T10:43:59.551Z,48.20
2018-07-04T10:46:39.255Z,48.30
2018-07-04T10:49:18.892Z,47.00
2018-07-04T10:51:59.597Z,46.80
2018-07-04T10:54:39.387Z,48.50
2018-07-04T10:57:19.090Z,48.20
2018-07-04T10:59:58.810Z,47.20
2018-07-04T11:02:38.515Z,46.90
2018-07-04T11:05:18.191Z,46.80
2018-07-04T11:07:57.852Z,45.90
2018-07-04T11:10:37.437Z,46.90
2018-07-04T11:13:17.072Z,46.50
2018-07-04T11:15:56.655Z,46.40
2018-07-04T11:18:36.368Z,45.40
2018-07-04T11:21:16.043Z,45.70
2018-07-04T11:23:55.945Z,46.50
2018-07-04T11:26:35.959Z,45.30
2018-07-04T11:29:15.942Z,44.90
2018-07-04T11:31:55.706Z,45.40
2018-07-04T11:34:35.665Z,45.50
2018-07-04T11:37:15.467Z,44.80
2018-07-04T11:39:55.188Z,44.60
2018-07-04T11:42:35.138Z,43.90
2018-07-04T11:45:14.865Z,44.80
2018-07-04T11:47:42.324Z,45.10
2018-07-04T11:50:09.727Z,44.70
2018-07-04T11:52:37.123Z,44.60
2018-07-04T11:55:04.591Z,45.30
2018-07-04T11:57:32.015Z,45.40
2018-07-04T11:59:59.428Z,44.30
2018-07-04T12:02:26.847Z,43.90
2018-07-04T12:05:06.488Z,43.90
2018-07-04T12:07:34.780Z,43.30
2018-07-04T12:10:02.211Z,43.30
2018-07-04T12:12:29.648Z,44.60
2018-07-04T12:14:57.084Z,44.20
2018-07-04T12:17:24.571Z,44.00
2018-07-04T12:19:51.984Z,42.60
2018-07-04T12:22:19.405Z,43.20
2018-07-04T12:24:46.844Z,43.20
2018-07-04T12:27:14.251Z,42.30
2018-07-04T12:29:41.672Z,42.80
2018-07-04T12:32:09.072Z,42.40
2018-07-04T12:34:36.628Z,42.70
2018-07-04T12:37:04.035Z,41.60
2018-07-04T12:39:31.428Z,41.50
2018-07-04T12:41:58.848Z,42.20
2018-07-04T12:44:26.276Z,42.60
2018-07-04T12:46:53.697Z,42.00
2018-07-04T12:49:27.133Z,42.50
2018-07-04T12:51:54.719Z,41.90
2018-07-04T12:54:28.300Z,42.20
2018-07-04T12:57:07.936Z,41.50
2018-07-04T12:59:47.627Z,40.60
2018-07-04T13:02:27.352Z,40.90
2018-07-04T13:05:07.215Z,40.80
2018-07-04T13:07:46.852Z,41.30
2018-07-04T13:10:26.573Z,42.10
2018-07-04T13:13:06.359Z,41.90
2018-07-04T13:15:46.132Z,41.90
2018-07-04T13:18:26.023Z,41.40
2018-07-04T13:21:05.887Z,42.40
2018-07-04T13:23:45.538Z,42.60
2018-07-04T13:26:25.341Z,42.90
2018-07-04T13:29:05.027Z,42.50
2018-07-04T13:31:44.822Z,41.90
2018-07-04T13:34:24.750Z,43.10
2018-07-04T13:37:04.729Z,42.60
2018-07-04T13:39:44.384Z,41.60
2018-07-04T13:42:24.226Z,42.10
2018-07-04T13:45:04.072Z,42.10
2018-07-04T13:47:43.867Z,41.90
2018-07-04T13:50:23.535Z,41.30
2018-07-04T13:53:03.384Z,42.70
2018-07-04T13:55:43.115Z,41.80
2018-07-04T13:58:22.964Z,42.10
2018-07-04T14:01:02.646Z,42.10
2018-07-04T14:03:42.499Z,42.30
2018-07-04T14:06:22.200Z,41.10
2018-07-04T14:09:02.023Z,41.70
2018-07-04T14:11:41.878Z,41.20
2018-07-04T14:14:21.629Z,42.10
2018-07-04T14:17:01.357Z,41.80
2018-07-04T14:19:41.131Z,42.10
2018-07-04T14:22:21.007Z,42.70
2018-07-04T14:25:00.751Z,42.70
2018-07-04T14:27:40.973Z,42.10
2018-07-04T14:30:21.280Z,42.80
2018-07-04T14:33:00.915Z,41.90
2018-07-04T14:35:40.712Z,41.70
2018-07-04T14:38:20.368Z,42.40
2018-07-04T14:41:00.244Z,42.40
2018-07-04T14:43:39.975Z,42.30
2018-07-04T14:46:19.743Z,42.60
2018-07-04T14:49:00.520Z,42.70
2018-07-04T14:51:40.240Z,42.70
2018-07-04T14:54:19.900Z,42.90
2018-07-04T14:56:59.579Z,42.80
2018-07-04T14:59:39.292Z,42.90
2018-07-04T15:02:18.964Z,43.70
2018-07-04T15:04:58.793Z,43.90
2018-07-04T15:07:38.595Z,44.70
2018-07-04T15:10:18.353Z,44.60
2018-07-04T15:12:58.027Z,44.40
2018-07-04T15:15:38.014Z,44.80
2018-07-04T15:18:17.740Z,44.50
2018-07-04T15:20:57.527Z,44.40
2018-07-04T15:23:37.196Z,44.40
2018-07-04T15:26:16.983Z,44.90
2018-07-04T15:28:56.808Z,44.70
2018-07-04T15:31:36.563Z,45.70
2018-07-04T15:34:16.459Z,45.50
2018-07-04T15:36:56.285Z,45.80
2018-07-04T15:39:35.987Z,45.60
2018-07-04T15:42:15.720Z,45.60
2018-07-04T15:44:55.768Z,45.20
2018-07-04T15:47:35.997Z,45.00
2018-07-04T15:50:16.186Z,45.70
2018-07-04T15:52:55.940Z,45.40
2018-07-04T15:55:35.611Z,45.50
2018-07-04T15:58:15.232Z,44.00
2018-07-04T16:00:55.169Z,44.20
2018-07-04T16:03:34.967Z,44.40
2018-07-04T16:06:15.336Z,45.00
2018-07-04T16:08:55.090Z,44.20
2018-07-04T16:11:34.667Z,43.80
2018-07-04T16:14:14.411Z,43.60
2018-07-04T16:16:54.040Z,43.20
2018-07-04T16:19:33.812Z,42.30
2018-07-04T16:22:13.507Z,42.50
2018-07-04T16:24:53.283Z,42.20
2018-07-04T16:27:33.148Z,42.90
2018-07-04T16:30:12.888Z,43.60
2018-07-04T16:32:52.748Z,43.50
2018-07-04T16:35:32.496Z,43.40
2018-07-04T16:38:12.217Z,43.50
2018-07-04T16:40:52.736Z,44.00
2018-07-04T16:43:32.553Z,44.40
2018-07-04T16:46:12.348Z,43.90
2018-07-04T16:48:53.013Z,43.40
2018-07-04T16:51:32.860Z,44.00
2018-07-04T16:54:12.736Z,44.90
2018-07-04T16:56:52.552Z,46.00
2018-07-04T16:59:32.349Z,46.30
2018-07-04T17:02:12.459Z,46.50
2018-07-04T17:04:52.356Z,46.10
2018-07-04T17:07:32.243Z,45.70
2018-07-04T17:10:13.104Z,45.90
2018-07-04T17:15:26.795Z,46.10
2018-07-04T17:18:07.421Z,46.00
2018-07-04T17:23:22.035Z,46.00
2018-07-04T17:26:01.895Z,46.40
2018-07-04T17:28:41.931Z,47.20
2018-07-04T17:31:21.655Z,46.70
2018-07-04T17:34:01.348Z,46.00
2018-07-04T17:36:40.966Z,45.70
2018-07-04T17:39:20.699Z,45.00
2018-07-04T17:42:01.860Z,46.50
2018-07-04T17:44:41.729Z,46.90
2018-07-04T17:47:21.563Z,47.30
2018-07-04T17:50:01.390Z,47.90
2018-07-04T17:52:41.260Z,48.50
2018-07-04T17:55:20.928Z,48.20
2018-07-04T17:58:00.714Z,47.80
2018-07-04T18:00:40.311Z,48.00
2018-07-04T18:03:19.975Z,48.40
2018-07-04T18:05:59.611Z,48.90
2018-07-04T18:08:39.765Z,49.60
2018-07-04T18:11:19.583Z,49.30
2018-07-04T18:16:33.064Z,49.70
2018-07-04T18:19:12.772Z,50.00
2018-07-04T18:21:52.403Z,50.30
2018-07-04T18:24:32.268Z,51.10
2018-07-04T18:27:12.044Z,51.80
2018-07-04T18:29:51.896Z,51.60
2018-07-04T18:32:31.805Z,51.90
2018-07-04T18:35:11.548Z,50.90
2018-07-04T18:37:51.187Z,51.30
2018-07-04T18:40:30.935Z,51.40
2018-07-04T18:45:44.788Z,51.20
2018-07-04T18:48:24.583Z,51.70
2018-07-04T18:51:04.648Z,51.40
2018-07-04T18:53:44.373Z,51.50
2018-07-04T18:56:24.214Z,51.30
2018-07-04T18:59:04.126Z,51.10
2018-07-04T19:01:43.884Z,51.50
2018-07-04T19:04:23.628Z,51.70
2018-07-04T19:07:04.367Z,51.90
2018-07-04T19:09:44.043Z,51.50
2018-07-04T19:12:23.842Z,52.40
2018-07-04T19:15:03.563Z,52.30
2018-07-04T19:17:43.259Z,52.10
2018-07-04T19:20:23.055Z,52.40
2018-07-04T19:23:02.700Z,52.70
2018-07-04T19:25:42.444Z,52.70
2018-07-04T19:28:23.723Z,53.00
2018-07-04T19:31:03.387Z,53.40
2018-07-04T19:33:43.145Z,53.80
2018-07-04T19:36:22.791Z,54.80
2018-07-04T19:39:03.184Z,53.80
2018-07-04T19:44:16.829Z,54.50
2018-07-04T19:46:56.643Z,54.40
2018-07-04T19:49:36.455Z,54.60
2018-07-04T19:52:16.224Z,54.60
2018-07-04T19:54:56.020Z,55.00
2018-07-04T19:57:35.868Z,55.40
2018-07-04T20:00:15.607Z,55.40
2018-07-04T20:02:55.238Z,55.90
2018-07-04T20:05:34.976Z,56.20
2018-07-04T20:08:14.743Z,56.10
2018-07-04T20:10:54.583Z,56.50
2018-07-04T20:13:34.493Z,56.80
2018-07-04T20:16:14.275Z,56.90
2018-07-04T20:18:54.032Z,57.10
2018-07-04T20:21:33.756Z,57.40
2018-07-04T20:24:13.426Z,57.30
2018-07-04T20:26:53.082Z,57.40
2018-07-04T20:29:32.859Z,57.60
2018-07-04T20:32:13.258Z,57.70
2018-07-04T20:34:53.043Z,58.10
2018-07-04T20:37:32.628Z,58.50
2018-07-04T20:40:12.420Z,59.00
2018-07-04T20:42:52.282Z,59.60
2018-07-04T20:45:32.084Z,60.40
2018-07-04T20:48:11.798Z,60.10
2018-07-04T20:50:51.441Z,60.50
2018-07-04T20:53:31.418Z,61.40
2018-07-04T20:56:11.299Z,61.40
2018-07-04T20:58:50.975Z,62.00
2018-07-04T21:01:30.840Z,61.90
2018-07-04T21:04:10.722Z,62.60
2018-07-04T21:06:50.430Z,62.60
2018-07-04T21:09:30.220Z,62.80
2018-07-04T21:12:09.890Z,63.00
2018-07-04T21:14:49.567Z,63.30
2018-07-04T21:17:29.237Z,63.70
2018-07-04T21:20:08.788Z,63.90
2018-07-04T21:22:48.463Z,63.80
2018-07-04T21:25:28.155Z,64.50
2018-07-04T21:28:07.780Z,64.80
2018-07-04T21:30:47.559Z,65.00
2018-07-04T21:33:27.212Z,64.90
2018-07-04T21:36:07.027Z,65.40
2018-07-04T21:38:46.794Z,65.30
2018-07-04T21:41:26.582Z,65.40
2018-07-04T21:44:06.135Z,65.90
2018-07-04T21:46:45.796Z,65.80
2018-07-04T21:49:25.590Z,66.40
2018-07-04T21:52:05.495Z,66.40
2018-07-04T21:54:45.285Z,66.30
2018-07-04T21:57:25.247Z,67.00
2018-07-04T22:00:04.828Z,68.00
2018-07-04T22:02:44.539Z,67.20
2018-07-04T22:05:24.307Z,67.50
2018-07-04T22:08:04.936Z,67.70
2018-07-04T22:10:44.699Z,67.80
2018-07-04T22:13:24.339Z,68.10
2018-07-04T22:16:03.990Z,67.80
2018-07-04T22:18:43.652Z,67.90
2018-07-04T22:21:23.371Z,68.30
2018-07-04T22:24:03.082Z,68.60
2018-07-04T22:26:42.709Z,69.10
2018-07-04T22:29:22.467Z,69.10
2018-07-04T22:32:02.220Z,69.10
2018-07-04T22:34:41.888Z,69.30
2018-07-04T22:37:21.702Z,69.40
2018-07-04T22:40:01.483Z,69.50
2018-07-04T22:42:41.151Z,69.70
2018-07-04T22:45:20.903Z,70.20
2018-07-04T22:48:00.576Z,70.00
2018-07-04T22:50:40.748Z,70.00
2018-07-04T22:53:20.474Z,70.50
2018-07-04T22:56:00.264Z,70.50
2018-07-04T22:58:40.164Z,70.60
2018-07-04T23:01:20.054Z,70.90
2018-07-04T23:03:59.927Z,70.80
2018-07-04T23:06:39.650Z,71.00
2018-07-04T23:11:53.347Z,71.60
2018-07-04T23:14:33.176Z,71.50
2018-07-04T23:17:12.952Z,71.70
2018-07-04T23:19:52.540Z,71.60
2018-07-04T23:25:06.097Z,71.70
2018-07-04T23:27:46.023Z,71.70
2018-07-04T23:30:25.615Z,72.00
2018-07-04T23:33:06.242Z,72.00
2018-07-04T23:35:46.157Z,72.20
2018-07-04T23:38:25.922Z,72.50
2018-07-04T23:41:05.555Z,72.50
2018-07-04T23:43:45.259Z,72.50
2018-07-04T23:46:24.929Z,72.60
2018-07-04T23:49:04.568Z,72.80
2018-07-04T23:51:44.213Z,73.00
2018-07-04T23:54:23.875Z,73.10
2018-07-04T23:57:03.511Z,73.10
2018-07-04T23:59:43.132Z,73.20
